createdAt,value
2023-04-15T00:00:50.413Z,4.3764
2023-04-15T00:01:51.118Z,4.4324
2023-04-15T00:02:52.215Z,4.3856
2023-04-15T00:03:53.401Z,4.2304
2023-04-15T00:04:53.374Z,4.2014
2023-04-15T00:05:54.310Z,4.2895
2023-04-15T00:06:55.022Z,4.3145
2023-04-15T00:07:55.460Z,4.1629
2023-04-15T00:08:56.122Z,4.2793
2023-04-15T00:09:56.625Z,4.1949
2023-04-15T00:10:57.217Z,4.1681
2023-04-15T00:11:57.851Z,4.0365
2023-04-15T00:12:58.424Z,3.9721
2023-04-15T00:13:59.129Z,3.9237
2023-04-15T00:14:59.833Z,3.8988
2023-04-15T00:16:00.489Z,3.8662
2023-04-15T00:17:01.574Z,3.8476
2023-04-15T00:18:02.402Z,3.8249
2023-04-15T00:19:03.297Z,3.8226
2023-04-15T00:20:04.213Z,3.8077
2023-04-15T00:21:04.689Z,3.7693
2023-04-15T00:22:05.365Z,3.7664
2023-04-15T00:23:06.103Z,3.7660
2023-04-15T00:24:06.603Z,3.7720
2023-04-15T00:25:07.451Z,3.7458
2023-04-15T00:26:08.432Z,3.7347
2023-04-15T00:27:09.080Z,3.7460
2023-04-15T00:28:09.979Z,3.7722
2023-04-15T00:29:10.859Z,3.7744
2023-04-15T00:30:11.408Z,3.7609
2023-04-15T00:31:12.724Z,3.7596
2023-04-15T00:32:13.379Z,3.7605
2023-04-15T00:33:14.113Z,3.7565
2023-04-15T00:34:14.723Z,3.7572
2023-04-15T00:35:15.206Z,3.7570
2023-04-15T00:36:16.003Z,3.7561
2023-04-15T00:37:16.497Z,3.7512
2023-04-15T00:38:17.114Z,3.7534
2023-04-15T00:39:17.894Z,3.7515
2023-04-15T00:40:18.521Z,3.7482
2023-04-15T00:41:19.313Z,3.7534
2023-04-15T00:42:19.997Z,3.7509
2023-04-15T00:43:20.583Z,3.7626
2023-04-15T00:44:21.197Z,3.7773
2023-04-15T00:45:21.691Z,3.7780
2023-04-15T00:46:22.840Z,3.8026
2023-04-15T00:47:23.613Z,3.8342
2023-04-15T00:48:24.412Z,3.8378
2023-04-15T00:49:25.170Z,3.8177
2023-04-15T00:50:25.842Z,3.8603
2023-04-15T00:51:26.523Z,3.8638
2023-04-15T00:52:27.291Z,3.8704
2023-04-15T00:53:27.885Z,3.8762
2023-04-15T00:54:28.658Z,3.8849
2023-04-15T00:55:29.291Z,3.8973
2023-04-15T00:56:29.870Z,3.9154
2023-04-15T00:57:30.749Z,3.9227
2023-04-15T00:58:31.348Z,3.9275
2023-04-15T00:59:32.126Z,3.9945
2023-04-15T01:00:32.656Z,4.0218
2023-04-15T01:01:33.288Z,4.0494
2023-04-15T01:02:33.748Z,4.1124
2023-04-15T01:03:35.364Z,4.1713
2023-04-15T01:04:35.348Z,4.1965
2023-04-15T01:05:36.398Z,4.2117
2023-04-15T01:06:37.019Z,4.3250
2023-04-15T01:07:37.959Z,4.3201
2023-04-15T01:08:39.037Z,4.3179
2023-04-15T01:09:39.639Z,4.3519
2023-04-15T01:10:40.621Z,4.5053
2023-04-15T01:11:41.230Z,4.6487
2023-04-15T01:12:41.952Z,4.7006
2023-04-15T01:13:42.726Z,4.6721
2023-04-15T01:14:43.626Z,4.7063
2023-04-15T01:15:44.328Z,4.6654
2023-04-15T01:16:45.510Z,4.6425
2023-04-15T01:17:46.167Z,4.6854
2023-04-15T01:18:46.188Z,4.7030
2023-04-15T01:19:46.323Z,4.6972
2023-04-15T01:20:47.099Z,4.7594
2023-04-15T01:21:47.772Z,4.7637
2023-04-15T01:22:48.271Z,4.7970
2023-04-15T01:23:48.916Z,4.8744
2023-04-15T01:24:49.670Z,4.8763
2023-04-15T01:25:50.174Z,4.8584
2023-04-15T01:26:51.055Z,4.8396
2023-04-15T01:27:52.036Z,4.8374
2023-04-15T01:28:52.639Z,4.8390
2023-04-15T01:29:53.375Z,4.8441
2023-04-15T01:30:53.997Z,4.8283
2023-04-15T01:31:55.066Z,4.8023
2023-04-15T01:32:55.590Z,4.8011
2023-04-15T01:33:56.258Z,4.7425
2023-04-15T01:34:57.370Z,4.7022
2023-04-15T01:35:58.188Z,4.7180
2023-04-15T01:36:58.824Z,4.7380
2023-04-15T01:37:59.663Z,4.7664
2023-04-15T01:39:00.347Z,4.8161
2023-04-15T01:40:00.542Z,4.7900
2023-04-15T01:41:01.261Z,4.8076
2023-04-15T01:42:01.930Z,4.8298
2023-04-15T01:43:02.762Z,4.8167
2023-04-15T01:44:03.528Z,4.8237
2023-04-15T01:45:04.079Z,4.8331
2023-04-15T01:46:04.805Z,4.8461
2023-04-15T01:47:06.128Z,4.8550
2023-04-15T01:48:07.192Z,4.8604
2023-04-15T01:49:08.486Z,4.8773
2023-04-15T01:50:09.114Z,4.8845
2023-04-15T01:51:09.814Z,4.8902
2023-04-15T01:52:10.532Z,4.8990
2023-04-15T01:53:11.423Z,4.9104
2023-04-15T01:54:11.899Z,4.9195
2023-04-15T01:55:12.544Z,4.9257
2023-04-15T01:56:14.717Z,4.9147
2023-04-15T01:57:13.651Z,4.9125
2023-04-15T01:58:14.504Z,4.9117
2023-04-15T01:59:14.970Z,4.9252
2023-04-15T02:00:15.668Z,4.9525
2023-04-15T02:01:16.773Z,4.9632
2023-04-15T02:02:17.941Z,4.9634
2023-04-15T02:03:18.479Z,4.9963
2023-04-15T02:04:19.449Z,4.9856
2023-04-15T02:05:20.135Z,4.9884
2023-04-15T02:06:20.799Z,5.0137
2023-04-15T02:07:21.288Z,4.9974
2023-04-15T02:08:21.952Z,5.0055
2023-04-15T02:09:23.049Z,5.0038
2023-04-15T02:10:23.517Z,5.0123
2023-04-15T02:11:24.127Z,5.0224
2023-04-15T02:12:24.546Z,5.0423
2023-04-15T02:13:25.165Z,5.0428
2023-04-15T02:14:26.087Z,5.0153
2023-04-15T02:15:26.602Z,5.0158
2023-04-15T02:16:27.596Z,4.9937
2023-04-15T02:17:28.721Z,4.9853
2023-04-15T02:18:29.599Z,5.0114
2023-04-15T02:19:30.452Z,4.9861
2023-04-15T02:20:31.178Z,4.9820
2023-04-15T02:21:31.819Z,4.9879
2023-04-15T02:22:32.765Z,4.9657
2023-04-15T02:23:33.208Z,4.9827
2023-04-15T02:24:33.937Z,4.9793
2023-04-15T02:25:34.559Z,4.9582
2023-04-15T02:26:34.870Z,4.9629
2023-04-15T02:27:35.585Z,4.9690
2023-04-15T02:28:36.091Z,4.9691
2023-04-15T02:29:36.868Z,4.9152
2023-04-15T02:30:37.679Z,4.8506
2023-04-15T02:31:38.206Z,4.8653
2023-04-15T02:32:39.220Z,4.8546
2023-04-15T02:33:40.069Z,4.9045
2023-04-15T02:34:40.600Z,4.9432
2023-04-15T02:35:41.498Z,4.9798
2023-04-15T02:36:41.887Z,4.9534
2023-04-15T02:37:42.672Z,4.9508
2023-04-15T02:38:43.339Z,4.9585
2023-04-15T02:39:43.865Z,4.9946
2023-04-15T02:40:44.669Z,4.9699
2023-04-15T02:41:45.398Z,4.9697
2023-04-15T02:42:45.948Z,4.9354
2023-04-15T02:43:46.624Z,4.9458
2023-04-15T02:44:47.131Z,4.9244
2023-04-15T02:45:47.867Z,4.8924
2023-04-15T02:46:48.912Z,4.8880
2023-04-15T02:47:49.519Z,4.9053
2023-04-15T02:48:50.185Z,4.9070
2023-04-15T02:49:50.977Z,4.9391
2023-04-15T02:50:52.007Z,4.9555
2023-04-15T02:51:51.863Z,4.9815
2023-04-15T02:52:52.334Z,4.9693
2023-04-15T02:53:52.981Z,4.9696
2023-04-15T02:54:53.762Z,4.9981
2023-04-15T02:55:54.467Z,5.0013
2023-04-15T02:56:55.278Z,5.0056
2023-04-15T02:57:56.256Z,5.0080
2023-04-15T02:58:56.703Z,5.0449
2023-04-15T02:59:57.670Z,5.0560
2023-04-15T03:00:58.289Z,5.0657
2023-04-15T03:01:59.419Z,5.0538
2023-04-15T03:02:59.633Z,5.0627
2023-04-15T03:04:00.938Z,5.0729
2023-04-15T03:05:00.991Z,5.0470
2023-04-15T03:06:01.519Z,5.0037
2023-04-15T03:07:02.046Z,4.9752
2023-04-15T03:08:03.397Z,4.9853
2023-04-15T03:10:03.656Z,4.9757
2023-04-15T03:11:04.163Z,4.9534
2023-04-15T03:12:05.081Z,4.9705
2023-04-15T03:13:05.434Z,4.9871
2023-04-15T03:14:06.182Z,5.0036
2023-04-15T03:15:06.642Z,4.9991
2023-04-15T03:16:07.677Z,4.9821
2023-04-15T03:17:08.435Z,4.9797
2023-04-15T03:18:09.139Z,4.9672
2023-04-15T03:19:10.438Z,4.9543
2023-04-15T03:20:11.405Z,4.9603
2023-04-15T03:21:11.934Z,4.9576
2023-04-15T03:22:12.566Z,4.9632
2023-04-15T03:23:13.198Z,5.0064
2023-04-15T03:24:13.673Z,5.0169
2023-04-15T03:25:14.401Z,5.0212
2023-04-15T03:26:15.182Z,5.0141
2023-04-15T03:27:15.603Z,4.9857
2023-04-15T03:28:16.360Z,4.9846
2023-04-15T03:29:16.737Z,4.9811
2023-04-15T03:30:17.463Z,4.9500
2023-04-15T03:31:18.151Z,4.9603
2023-04-15T03:32:18.989Z,4.9623
2023-04-15T03:33:19.926Z,4.9748
2023-04-15T03:34:20.608Z,4.9857
2023-04-15T03:35:21.210Z,5.0073
2023-04-15T03:36:21.760Z,5.0093
2023-04-15T03:37:22.320Z,4.9942
2023-04-15T03:38:22.818Z,5.0068
2023-04-15T03:39:24.062Z,5.0193
2023-04-15T03:40:24.565Z,5.0433
2023-04-15T03:41:25.243Z,5.0453
2023-04-15T03:42:25.915Z,5.0491
2023-04-15T03:43:26.922Z,5.0774
2023-04-15T03:44:27.633Z,5.0821
2023-04-15T03:45:28.088Z,5.0774
2023-04-15T03:46:29.244Z,5.0866
2023-04-15T03:47:30.018Z,5.0789
2023-04-15T03:48:30.580Z,5.0669
2023-04-15T03:49:31.828Z,5.0879
2023-04-15T03:50:32.397Z,5.0782
2023-04-15T03:51:33.042Z,5.0868
2023-04-15T03:52:33.722Z,5.0983
2023-04-15T03:53:34.473Z,5.1067
2023-04-15T03:54:35.040Z,5.1094
2023-04-15T03:55:35.552Z,5.1216
2023-04-15T03:56:35.992Z,5.1815
2023-04-15T03:57:36.640Z,5.1787
2023-04-15T03:58:37.479Z,5.1809
2023-04-15T03:59:38.554Z,5.1897
2023-04-15T04:00:39.163Z,5.1694
2023-04-15T04:01:39.848Z,5.1788
2023-04-15T04:02:40.227Z,5.1534
2023-04-15T04:03:41.035Z,5.1395
2023-04-15T04:04:41.546Z,5.1353
2023-04-15T04:05:42.288Z,5.1473
2023-04-15T04:06:43.044Z,5.1750
2023-04-15T04:07:44.018Z,5.1739
2023-04-15T04:08:44.544Z,5.1626
2023-04-15T04:09:47.154Z,5.1561
2023-04-15T04:10:46.793Z,5.1530
2023-04-15T04:11:47.389Z,5.1725
2023-04-15T04:12:48.051Z,5.1602
2023-04-15T04:13:48.489Z,5.1653
2023-04-15T04:14:49.152Z,5.1532
2023-04-15T04:15:49.941Z,5.1623
2023-04-15T04:16:50.080Z,5.1551
2023-04-15T04:17:51.105Z,5.1567
2023-04-15T04:18:51.608Z,5.1497
2023-04-15T04:19:52.307Z,5.1481
2023-04-15T04:20:53.031Z,5.1463
2023-04-15T04:21:53.528Z,5.1383
2023-04-15T04:22:54.189Z,5.1341
2023-04-15T04:23:54.866Z,5.1225
2023-04-15T04:24:55.254Z,5.1280
2023-04-15T04:25:55.882Z,5.1110
2023-04-15T04:26:56.527Z,5.1052
2023-04-15T04:27:57.064Z,5.1088
2023-04-15T04:28:57.719Z,5.0972
2023-04-15T04:29:58.173Z,5.0829
2023-04-15T04:30:58.665Z,5.0873
2023-04-15T04:31:59.650Z,5.0777
2023-04-15T04:33:00.505Z,5.1001
2023-04-15T04:34:01.104Z,5.1618
2023-04-15T04:35:01.555Z,5.1672
2023-04-15T04:36:02.378Z,5.1761
2023-04-15T04:37:02.977Z,5.2244
2023-04-15T04:38:03.518Z,5.2791
2023-04-15T04:39:04.483Z,5.2774
2023-04-15T04:40:05.178Z,5.2485
2023-04-15T04:41:05.674Z,5.2503
2023-04-15T04:42:06.249Z,5.2379
2023-04-15T04:43:06.835Z,5.2397
2023-04-15T04:44:07.441Z,5.2704
2023-04-15T04:45:08.222Z,5.3013
2023-04-15T04:47:09.554Z,5.3820
2023-04-15T04:48:10.421Z,5.3415
2023-04-15T04:49:11.397Z,5.3891
2023-04-15T04:50:12.085Z,5.3646
2023-04-15T04:51:12.783Z,5.3429
2023-04-15T04:52:13.350Z,5.3368
2023-04-15T04:53:14.036Z,5.3241
2023-04-15T04:54:14.871Z,5.3045
2023-04-15T04:55:15.800Z,5.2922
2023-04-15T04:56:16.383Z,5.2990
2023-04-15T04:57:16.850Z,5.2756
2023-04-15T04:58:17.530Z,5.2571
2023-04-15T04:59:19.918Z,5.2744
2023-04-15T05:00:20.469Z,5.2678
2023-04-15T05:01:21.277Z,5.2611
2023-04-15T05:02:21.837Z,5.2627
2023-04-15T05:03:22.071Z,5.2568
2023-04-15T05:04:22.037Z,5.2635
2023-04-15T05:05:22.487Z,5.2615
2023-04-15T05:06:23.315Z,5.2707
2023-04-15T05:07:23.995Z,5.2745
2023-04-15T05:08:24.548Z,5.2882
2023-04-15T05:09:25.788Z,5.3047
2023-04-15T05:10:26.436Z,5.2923
2023-04-15T05:11:26.884Z,5.3473
2023-04-15T05:12:27.720Z,5.3563
2023-04-15T05:13:28.126Z,5.3501
2023-04-15T05:14:29.217Z,5.3616
2023-04-15T05:15:29.875Z,5.3549
2023-04-15T05:16:30.529Z,5.3938
2023-04-15T05:17:31.475Z,5.3692
2023-04-15T05:18:32.145Z,5.3749
2023-04-15T05:19:33.198Z,5.3884
2023-04-15T05:20:33.874Z,5.4062
2023-04-15T05:21:34.437Z,5.3777
2023-04-15T05:22:34.922Z,5.3797
2023-04-15T05:23:35.819Z,5.3650
2023-04-15T05:24:36.286Z,5.3893
2023-04-15T05:25:36.418Z,5.3943
2023-04-15T05:26:37.042Z,5.4079
2023-04-15T05:27:37.647Z,5.4048
2023-04-15T05:28:38.517Z,5.4272
2023-04-15T05:29:39.307Z,5.4714
2023-04-15T05:30:39.844Z,5.4839
2023-04-15T05:31:40.740Z,5.5159
2023-04-15T05:32:41.839Z,5.5549
2023-04-15T05:33:42.425Z,5.5680
2023-04-15T05:34:43.267Z,5.5769
2023-04-15T05:35:43.736Z,5.5934
2023-04-15T05:36:44.352Z,5.6139
2023-04-15T05:37:45.077Z,5.6494
2023-04-15T05:38:45.543Z,5.6272
2023-04-15T05:39:46.910Z,5.5982
2023-04-15T05:40:46.603Z,5.6728
2023-04-15T05:41:47.295Z,5.7287
2023-04-15T05:42:47.990Z,5.7451
2023-04-15T05:43:48.436Z,5.7762
2023-04-15T05:44:49.293Z,5.7730
2023-04-15T05:45:50.209Z,5.7840
2023-04-15T05:46:50.759Z,5.7994
2023-04-15T05:47:51.616Z,5.8046
2023-04-15T05:48:53.396Z,5.8124
2023-04-15T05:49:53.361Z,5.8252
2023-04-15T05:50:54.099Z,5.8656
2023-04-15T05:51:54.714Z,5.8817
2023-04-15T05:52:55.412Z,5.8834
2023-04-15T05:53:56.184Z,5.9009
2023-04-15T05:54:56.745Z,5.9365
2023-04-15T05:55:57.487Z,5.9575
2023-04-15T05:56:58.400Z,5.9516
2023-04-15T05:57:58.953Z,5.9072
2023-04-15T05:58:59.800Z,5.9760
2023-04-15T06:00:00.567Z,5.9981
2023-04-15T06:01:01.085Z,6.0331
2023-04-15T06:02:01.852Z,6.0622
2023-04-15T06:03:03.077Z,6.0764
2023-04-15T06:04:03.688Z,6.0813
2023-04-15T06:05:03.792Z,6.1241
2023-04-15T06:06:04.413Z,6.1327
2023-04-15T06:07:05.148Z,6.1670
2023-04-15T06:08:05.842Z,6.2310
2023-04-15T06:09:06.019Z,6.2164
2023-04-15T06:10:06.854Z,6.2883
2023-04-15T06:11:07.335Z,6.3149
2023-04-15T06:12:08.176Z,6.3891
2023-04-15T06:13:08.808Z,6.4431
2023-04-15T06:14:09.373Z,6.4352
2023-04-15T06:15:10.204Z,6.4454
2023-04-15T06:16:11.509Z,6.5092
2023-04-15T06:17:12.392Z,6.4270
2023-04-15T06:18:13.357Z,6.4502
2023-04-15T06:19:15.142Z,6.4538
2023-04-15T06:20:14.482Z,6.4619
2023-04-15T06:21:15.487Z,6.5611
2023-04-15T06:22:16.017Z,6.5567
2023-04-15T06:23:16.870Z,6.6332
2023-04-15T06:24:17.560Z,6.6802
2023-04-15T06:25:18.201Z,6.6912
2023-04-15T06:26:18.911Z,6.6248
2023-04-15T06:27:19.435Z,6.7709
2023-04-15T06:28:19.971Z,6.7754
2023-04-15T06:29:20.907Z,6.8361
2023-04-15T06:30:23.496Z,6.9327
2023-04-15T06:31:22.671Z,7.0024
2023-04-15T06:32:23.730Z,7.1304
2023-04-15T06:33:24.578Z,7.2223
2023-04-15T06:34:25.778Z,7.2033
2023-04-15T06:35:26.815Z,7.2436
2023-04-15T06:36:27.616Z,7.3334
2023-04-15T06:37:28.395Z,7.3193
2023-04-15T06:38:29.460Z,7.3231
2023-04-15T06:39:29.953Z,7.3682
2023-04-15T06:40:30.827Z,7.4118
2023-04-15T06:41:31.440Z,7.2933
2023-04-15T06:42:32.155Z,7.2685
2023-04-15T06:43:32.773Z,7.2561
2023-04-15T06:44:34.029Z,7.0811
2023-04-15T06:45:33.678Z,7.0073
2023-04-15T06:46:34.657Z,7.1204
2023-04-15T06:47:35.465Z,7.1047
2023-04-15T06:48:36.143Z,7.0797
2023-04-15T06:49:36.727Z,7.0963
2023-04-15T06:50:37.443Z,7.0084
2023-04-15T06:51:37.922Z,7.1580
2023-04-15T06:52:38.834Z,7.1503
2023-04-15T06:53:39.579Z,7.0787
2023-04-15T06:54:40.146Z,7.2059
2023-04-15T06:55:41.049Z,7.2470
2023-04-15T06:56:41.873Z,7.1014
2023-04-15T06:57:42.481Z,7.0367
2023-04-15T06:58:43.279Z,6.9860
2023-04-15T06:59:44.335Z,7.1108
2023-04-15T07:00:44.948Z,7.0639
2023-04-15T07:01:46.009Z,7.0565
2023-04-15T07:02:46.121Z,7.0218
2023-04-15T07:03:46.966Z,6.9997
2023-04-15T07:04:47.912Z,7.1280
2023-04-15T07:05:48.461Z,7.1510
2023-04-15T07:06:49.320Z,7.2334
2023-04-15T07:07:49.995Z,7.1872
2023-04-15T07:08:50.738Z,7.1652
2023-04-15T07:09:51.864Z,7.2916
2023-04-15T07:10:52.794Z,7.3192
2023-04-15T07:11:53.781Z,7.3176
2023-04-15T07:12:54.988Z,7.4604
2023-04-15T07:13:55.807Z,7.5210
2023-04-15T07:14:56.686Z,7.4604
2023-04-15T07:15:56.878Z,7.6003
2023-04-15T07:16:58.165Z,7.6029
2023-04-15T07:17:59.805Z,7.5861
2023-04-15T07:19:01.331Z,7.4625
2023-04-15T07:21:01.471Z,7.3502
2023-04-15T07:22:02.368Z,7.3926
2023-04-15T07:23:03.108Z,7.4731
2023-04-15T07:24:03.241Z,7.5224
2023-04-15T07:25:04.262Z,7.5402
2023-04-15T07:26:04.452Z,7.5980
2023-04-15T07:27:05.525Z,7.5529
2023-04-15T07:28:06.289Z,7.5098
2023-04-15T07:29:07.817Z,7.4018
2023-04-15T07:30:08.177Z,7.5173
2023-04-15T07:31:08.997Z,7.7122
2023-04-15T07:32:10.226Z,7.7126
2023-04-15T07:33:10.237Z,7.6534
2023-04-15T07:34:10.980Z,7.7153
2023-04-15T07:35:12.044Z,7.6073
2023-04-15T07:36:12.873Z,7.7234
2023-04-15T07:37:13.915Z,7.7039
2023-04-15T07:38:14.923Z,7.7316
2023-04-15T07:39:15.713Z,7.7742
2023-04-15T07:40:16.852Z,7.7814
2023-04-15T07:41:17.601Z,7.7351
2023-04-15T07:42:18.306Z,7.6210
2023-04-15T07:43:19.014Z,7.5359
2023-04-15T07:44:20.031Z,7.6273
2023-04-15T07:45:20.703Z,7.5856
2023-04-15T07:46:21.023Z,7.6332
2023-04-15T07:47:21.289Z,7.6450
2023-04-15T07:48:21.322Z,7.6564
2023-04-15T07:49:22.441Z,7.7244
2023-04-15T07:50:23.202Z,7.6007
2023-04-15T07:51:24.343Z,7.5527
2023-04-15T07:52:25.200Z,7.5511
2023-04-15T07:53:25.980Z,7.6104
2023-04-15T07:54:26.831Z,7.6875
2023-04-15T07:55:28.428Z,7.7202
2023-04-15T07:56:29.003Z,7.6378
2023-04-15T07:57:29.820Z,7.6805
2023-04-15T07:58:30.876Z,7.7206
2023-04-15T07:59:31.884Z,7.7154
2023-04-15T08:00:33.093Z,7.7909
2023-04-15T08:01:33.960Z,7.7580
2023-04-15T08:02:34.269Z,7.8367
2023-04-15T08:03:34.623Z,7.9392
2023-04-15T08:04:35.886Z,7.9149
2023-04-15T08:05:36.694Z,7.7856
2023-04-15T08:06:37.517Z,7.8170
2023-04-15T08:07:38.124Z,7.9526
2023-04-15T08:08:38.920Z,8.0076
2023-04-15T08:09:39.787Z,7.9802
2023-04-15T08:10:40.430Z,7.9311
2023-04-15T08:11:41.440Z,8.0912
2023-04-15T08:12:42.824Z,8.1901
2023-04-15T08:13:45.027Z,8.1172
2023-04-15T08:14:45.445Z,8.2238
2023-04-15T08:15:46.545Z,8.1781
2023-04-15T08:16:47.818Z,8.2284
2023-04-15T08:17:49.085Z,8.2357
2023-04-15T08:18:50.056Z,8.1105
2023-04-15T08:19:51.225Z,8.1728
2023-04-15T08:20:51.872Z,8.2075
2023-04-15T08:21:52.728Z,8.3358
2023-04-15T08:22:53.901Z,8.2609
2023-04-15T08:23:54.886Z,8.3402
2023-04-15T08:24:55.782Z,8.3695
2023-04-15T08:25:56.059Z,8.4459
2023-04-15T08:26:56.951Z,8.4390
2023-04-15T08:27:57.862Z,8.4756
2023-04-15T08:28:58.690Z,8.5428
2023-04-15T08:29:59.023Z,8.7046
2023-04-15T08:30:59.551Z,8.7795
2023-04-15T08:32:00.785Z,8.9361
2023-04-15T08:33:01.672Z,8.9655
2023-04-15T08:34:02.548Z,8.8540
2023-04-15T08:35:03.344Z,9.0908
2023-04-15T08:36:04.192Z,9.0893
2023-04-15T08:37:05.096Z,8.9667
2023-04-15T08:38:06.018Z,9.0244
2023-04-15T08:39:06.830Z,8.8198
2023-04-15T08:40:07.670Z,8.9393
2023-04-15T08:41:08.426Z,8.9389
2023-04-15T08:42:08.511Z,8.7903
2023-04-15T08:43:09.053Z,8.9247
2023-04-15T08:44:09.550Z,8.8643
2023-04-15T08:45:10.746Z,8.6397
2023-04-15T08:46:11.916Z,8.3696
2023-04-15T08:47:13.086Z,8.2945
2023-04-15T08:48:13.619Z,8.2890
2023-04-15T08:49:14.918Z,8.3624
2023-04-15T08:50:16.090Z,8.5027
2023-04-15T08:52:16.493Z,8.7515
2023-04-15T08:53:17.478Z,8.8179
2023-04-15T08:54:18.295Z,8.7550
2023-04-15T08:55:18.364Z,8.8850
2023-04-15T08:56:18.748Z,8.8869
2023-04-15T08:57:19.206Z,8.9144
2023-04-15T08:58:19.279Z,8.7947
2023-04-15T08:59:20.433Z,8.7223
2023-04-15T09:00:20.830Z,8.9039
2023-04-15T09:01:21.898Z,8.8688
2023-04-15T09:02:23.189Z,8.9192
2023-04-15T09:03:23.894Z,8.9988
2023-04-15T09:04:23.761Z,9.1935
2023-04-15T09:05:24.755Z,9.3241
2023-04-15T09:07:25.652Z,9.5034
2023-04-15T09:08:26.794Z,9.2903
2023-04-15T09:09:27.656Z,9.3580
2023-04-15T09:10:28.707Z,9.4552
2023-04-15T09:11:29.581Z,9.4090
2023-04-15T09:12:30.491Z,9.3674
2023-04-15T09:13:30.734Z,9.4285
2023-04-15T09:14:31.547Z,9.3665
2023-04-15T09:15:32.710Z,9.3799
2023-04-15T09:16:33.919Z,9.4991
2023-04-15T09:17:35.035Z,9.6010
2023-04-15T09:18:35.442Z,9.5173
2023-04-15T09:19:35.392Z,9.5890
2023-04-15T09:20:36.160Z,9.4706
2023-04-15T09:21:37.184Z,9.6597
2023-04-15T09:22:37.474Z,9.4633
2023-04-15T09:24:38.031Z,9.5711
2023-04-15T09:25:38.088Z,9.6395
2023-04-15T09:26:38.955Z,9.6352
2023-04-15T09:27:39.443Z,9.6731
2023-04-15T09:28:39.647Z,9.6695
2023-04-15T09:29:40.781Z,9.8970
2023-04-15T09:30:41.649Z,9.9529
2023-04-15T09:31:41.846Z,9.6519
2023-04-15T09:32:43.293Z,9.9673
2023-04-15T09:34:43.144Z,8.8935
2023-04-15T09:35:44.028Z,8.9743
2023-04-15T09:36:44.827Z,8.7090
2023-04-15T09:37:45.616Z,8.7445
2023-04-15T09:38:46.340Z,8.5224
2023-04-15T09:39:47.151Z,8.6501
2023-04-15T09:40:48.240Z,8.9257
2023-04-15T09:41:49.669Z,9.0757
2023-04-15T09:42:52.441Z,9.1429
2023-04-15T09:43:53.540Z,9.3658
2023-04-15T09:44:53.579Z,9.1523
2023-04-15T09:45:54.533Z,9.3420
2023-04-15T09:46:55.254Z,9.4831
2023-04-15T09:47:57.084Z,9.5773
2023-04-15T09:48:56.909Z,9.6605
2023-04-15T09:49:57.867Z,9.7618
2023-04-15T09:50:57.798Z,9.7600
2023-04-15T09:52:04.469Z,9.7823
2023-04-15T09:52:58.731Z,9.8860
2023-04-15T09:53:59.687Z,9.8597
2023-04-15T09:54:59.627Z,9.8391
2023-04-15T09:56:00.152Z,10.0346
2023-04-15T09:57:01.008Z,10.0850
2023-04-15T09:58:01.758Z,10.1713
2023-04-15T09:59:02.782Z,10.2206
2023-04-15T10:00:03.726Z,10.2782
2023-04-15T10:01:04.905Z,10.2813
2023-04-15T10:02:06.061Z,10.2524
2023-04-15T10:03:06.921Z,10.0045
2023-04-15T10:04:07.459Z,10.2679
2023-04-15T10:05:08.219Z,10.0496
2023-04-15T10:06:08.355Z,9.7962
2023-04-15T10:07:09.479Z,10.1651
2023-04-15T10:08:10.573Z,10.1825
2023-04-15T10:09:11.736Z,10.0259
2023-04-15T10:10:12.752Z,9.9275
2023-04-15T10:11:13.890Z,9.7463
2023-04-15T10:12:15.036Z,9.5339
2023-04-15T10:13:15.834Z,9.2408
2023-04-15T10:14:16.859Z,9.3907
2023-04-15T10:15:17.898Z,9.1150
2023-04-15T10:16:18.695Z,9.2935
2023-04-15T10:17:19.823Z,9.1032
2023-04-15T10:18:20.864Z,9.2054
2023-04-15T10:19:21.720Z,9.1933
2023-04-15T10:20:22.668Z,9.0476
2023-04-15T10:21:23.327Z,9.1285
2023-04-15T10:22:24.433Z,9.0457
2023-04-15T10:23:24.695Z,8.7422
2023-04-15T10:24:25.366Z,8.6603
2023-04-15T10:25:26.571Z,8.6915
2023-04-15T10:26:27.151Z,8.6804
2023-04-15T10:27:27.935Z,8.5489
2023-04-15T10:28:28.700Z,8.5015
2023-04-15T10:29:29.958Z,8.6556
2023-04-15T10:30:31.177Z,8.5534
2023-04-15T10:31:32.468Z,8.6708
2023-04-15T10:32:33.428Z,8.7556
2023-04-15T10:33:34.501Z,8.6238
2023-04-15T10:34:34.714Z,8.7298
2023-04-15T10:35:35.332Z,8.7556
2023-04-15T10:36:36.394Z,8.7431
2023-04-15T10:37:37.060Z,8.6495
2023-04-15T10:38:37.874Z,8.8600
2023-04-15T10:39:39.008Z,9.0220
2023-04-15T10:40:39.585Z,9.3121
2023-04-15T10:41:40.264Z,9.4468
2023-04-15T10:43:51.208Z,9.4639
2023-04-15T10:44:51.408Z,9.4658
2023-04-15T10:45:52.562Z,9.4707
2023-04-15T10:46:53.108Z,9.3087
2023-04-15T10:47:54.452Z,9.0950
2023-04-15T10:48:55.220Z,9.1285
2023-04-15T10:49:56.111Z,9.0278
2023-04-15T10:50:57.069Z,8.9341
2023-04-15T10:51:57.679Z,8.9519
2023-04-15T10:52:57.689Z,9.2344
2023-04-15T10:53:58.787Z,9.2614
2023-04-15T10:54:59.511Z,9.0688
2023-04-15T10:56:00.300Z,9.0323
2023-04-15T10:57:00.929Z,9.1532
2023-04-15T10:58:01.576Z,8.7936
2023-04-15T10:59:02.532Z,8.7487
2023-04-15T11:00:03.764Z,8.8126
2023-04-15T11:01:04.532Z,8.6323
2023-04-15T11:02:04.717Z,8.7289
2023-04-15T11:03:05.356Z,8.8287
2023-04-15T11:04:07.818Z,8.9498
2023-04-15T11:05:08.831Z,9.0962
2023-04-15T11:06:08.726Z,9.0992
2023-04-15T11:07:09.750Z,9.1980
2023-04-15T11:08:10.801Z,9.2285
2023-04-15T11:09:12.474Z,9.2509
2023-04-15T11:11:13.340Z,9.2991
2023-04-15T11:12:13.789Z,9.2003
2023-04-15T11:13:20.036Z,9.3086
2023-04-15T11:14:20.805Z,9.4099
2023-04-15T11:15:21.774Z,9.3893
2023-04-15T11:16:22.910Z,9.3328
2023-04-15T11:17:23.316Z,9.1851
2023-04-15T11:18:23.578Z,9.2963
2023-04-15T11:19:24.694Z,9.3449
2023-04-15T11:20:24.590Z,9.3524
2023-04-15T11:21:41.620Z,9.3507
2023-04-15T11:22:42.788Z,9.0443
2023-04-15T11:23:43.011Z,8.8899
2023-04-15T11:24:43.349Z,8.8852
2023-04-15T11:25:44.252Z,8.7608
2023-04-15T11:26:44.082Z,8.7099
2023-04-15T11:27:44.848Z,8.5687
2023-04-15T11:28:45.611Z,8.5943
2023-04-15T11:29:46.644Z,8.6560
2023-04-15T11:30:47.369Z,8.5135
2023-04-15T11:31:48.384Z,8.5451
2023-04-15T11:32:49.644Z,8.5759
2023-04-15T11:33:50.863Z,8.6020
2023-04-15T11:34:51.662Z,8.6124
2023-04-15T11:35:52.245Z,8.5459
2023-04-15T11:36:53.471Z,8.7061
2023-04-15T11:37:54.212Z,8.8314
2023-04-15T11:38:55.043Z,8.9116
2023-04-15T11:39:55.903Z,8.8146
2023-04-15T11:40:57.270Z,8.8439
2023-04-15T11:41:58.022Z,8.9125
2023-04-15T11:42:58.228Z,8.8894
2023-04-15T11:43:59.296Z,8.9455
2023-04-15T11:44:59.871Z,8.8296
2023-04-15T11:46:01.010Z,8.7864
2023-04-15T11:47:02.044Z,8.9033
2023-04-15T11:48:03.089Z,8.7508
2023-04-15T11:49:03.705Z,8.9051
2023-04-15T11:50:04.556Z,8.7397
2023-04-15T11:51:05.221Z,8.7089
2023-04-15T11:52:05.854Z,8.7792
2023-04-15T11:53:08.384Z,8.7938
2023-04-15T11:54:06.711Z,8.8364
2023-04-15T11:55:07.277Z,8.9433
2023-04-15T11:56:07.914Z,9.0177
2023-04-15T11:57:08.703Z,9.1684
2023-04-15T11:58:09.493Z,8.9979
2023-04-15T11:59:10.184Z,9.0131
2023-04-15T12:00:10.933Z,9.2198
2023-04-15T12:01:11.431Z,9.0285
2023-04-15T12:02:12.218Z,8.8717
2023-04-15T12:03:13.584Z,9.1251
2023-04-15T12:04:14.466Z,9.3026
2023-04-15T12:05:15.785Z,9.5895
2023-04-15T12:06:16.805Z,9.5516
2023-04-15T12:07:17.611Z,9.5962
2023-04-15T12:08:18.202Z,9.2477
2023-04-15T12:09:18.882Z,9.6717
2023-04-15T12:10:19.966Z,10.0266
2023-04-15T12:11:20.656Z,9.7724
2023-04-15T12:12:20.889Z,9.9535
2023-04-15T12:13:21.079Z,10.1953
2023-04-15T12:14:21.378Z,9.9023
2023-04-15T12:15:22.150Z,9.7663
2023-04-15T12:16:22.941Z,9.7117
2023-04-15T12:17:23.347Z,9.6989
2023-04-15T12:18:23.736Z,9.8509
2023-04-15T12:19:24.095Z,9.6117
2023-04-15T12:20:25.312Z,9.9207
2023-04-15T12:21:25.430Z,9.8556
2023-04-15T12:22:26.042Z,10.1668
2023-04-15T12:23:26.105Z,9.9937
2023-04-15T12:24:26.851Z,10.2054
2023-04-15T12:25:27.129Z,9.9759
2023-04-15T12:26:27.605Z,9.9211
2023-04-15T12:27:29.723Z,9.8007
2023-04-15T12:28:28.231Z,9.9870
2023-04-15T12:29:28.387Z,10.1897
2023-04-15T12:30:29.540Z,10.1082
2023-04-15T12:31:29.854Z,9.9107
2023-04-15T12:32:30.324Z,9.5719
2023-04-15T12:33:31.067Z,9.3024
2023-04-15T12:34:31.740Z,9.4009
2023-04-15T12:35:31.525Z,9.5923
2023-04-15T12:36:32.084Z,9.7813
2023-04-15T12:37:33.235Z,9.6414
2023-04-15T12:38:33.701Z,9.7593
2023-04-15T12:39:35.487Z,9.6507
2023-04-15T12:40:34.719Z,9.6457
2023-04-15T12:41:35.323Z,9.6719
2023-04-15T12:42:35.809Z,9.5211
2023-04-15T12:43:36.877Z,9.5638
2023-04-15T12:44:37.227Z,9.5899
2023-04-15T12:45:37.671Z,9.5858
2023-04-15T12:46:38.388Z,9.5404